sensor_id;sensor_type;location;lat;lon;timestamp;P1;durP1;ratioP1;P2;durP2;ratioP2
62582;SDS011;48641;51.676;5.808;2022-11-15T00:00:18;8.60;;;3.42;;
62582;SDS011;48641;51.676;5.808;2022-11-15T00:02:44;7.35;;;3.40;;
62582;SDS011;48641;51.676;5.808;2022-11-15T00:05:09;6.78;;;3.25;;
62582;SDS011;48641;51.676;5.808;2022-11-15T00:07:35;7.30;;;3.10;;
62582;SDS011;48641;51.676;5.808;2022-11-15T00:10:00;7.43;;;3.22;;
62582;SDS011;48641;51.676;5.808;2022-11-15T00:12:27;7.13;;;3.03;;
62582;SDS011;48641;51.676;5.808;2022-11-15T00:14:53;7.35;;;3.15;;
62582;SDS011;48641;51.676;5.808;2022-11-15T00:17:18;7.78;;;3.70;;
62582;SDS011;48641;51.676;5.808;2022-11-15T00:19:44;8.07;;;3.53;;
62582;SDS011;48641;51.676;5.808;2022-11-15T00:22:10;7.97;;;3.10;;
62582;SDS011;48641;51.676;5.808;2022-11-15T00:24:35;7.47;;;3.00;;
62582;SDS011;48641;51.676;5.808;2022-11-15T00:27:01;8.63;;;3.90;;
62582;SDS011;48641;51.676;5.808;2022-11-15T00:29:26;7.13;;;3.40;;
62582;SDS011;48641;51.676;5.808;2022-11-15T00:31:52;7.57;;;3.28;;
62582;SDS011;48641;51.676;5.808;2022-11-15T00:34:18;7.40;;;3.58;;
62582;SDS011;48641;51.676;5.808;2022-11-15T00:36:43;7.18;;;2.83;;
62582;SDS011;48641;51.676;5.808;2022-11-15T00:39:09;7.82;;;3.25;;
62582;SDS011;48641;51.676;5.808;2022-11-15T00:41:34;8.05;;;3.55;;
62582;SDS011;48641;51.676;5.808;2022-11-15T00:44:00;7.18;;;3.05;;
62582;SDS011;48641;51.676;5.808;2022-11-15T00:46:25;7.95;;;3.17;;
62582;SDS011;48641;51.676;5.808;2022-11-15T00:48:51;6.90;;;2.97;;
62582;SDS011;48641;51.676;5.808;2022-11-15T00:51:16;7.13;;;2.90;;
62582;SDS011;48641;51.676;5.808;2022-11-15T00:53:42;6.88;;;3.20;;
62582;SDS011;48641;51.676;5.808;2022-11-15T00:56:08;7.28;;;3.15;;
62582;SDS011;48641;51.676;5.808;2022-11-15T00:58:33;7.25;;;3.00;;
62582;SDS011;48641;51.676;5.808;2022-11-15T01:01:05;7.15;;;3.30;;
62582;SDS011;48641;51.676;5.808;2022-11-15T01:03:33;6.95;;;3.22;;
62582;SDS011;48641;51.676;5.808;2022-11-15T01:05:59;7.40;;;3.35;;
62582;SDS011;48641;51.676;5.808;2022-11-15T01:08:25;6.93;;;2.90;;
62582;SDS011;48641;51.676;5.808;2022-11-15T01:10:51;7.75;;;3.33;;
62582;SDS011;48641;51.676;5.808;2022-11-15T01:13:16;7.43;;;3.17;;
62582;SDS011;48641;51.676;5.808;2022-11-15T01:15:42;6.82;;;3.30;;
62582;SDS011;48641;51.676;5.808;2022-11-15T01:18:08;7.40;;;3.40;;
62582;SDS011;48641;51.676;5.808;2022-11-15T01:20:34;6.65;;;3.25;;
62582;SDS011;48641;51.676;5.808;2022-11-15T01:23:03;6.88;;;3.10;;
62582;SDS011;48641;51.676;5.808;2022-11-15T01:25:29;6.72;;;3.17;;
62582;SDS011;48641;51.676;5.808;2022-11-15T01:27:54;7.63;;;3.28;;
62582;SDS011;48641;51.676;5.808;2022-11-15T01:30:20;7.18;;;3.08;;
62582;SDS011;48641;51.676;5.808;2022-11-15T01:32:45;7.70;;;3.15;;
62582;SDS011;48641;51.676;5.808;2022-11-15T01:35:11;6.50;;;3.00;;
62582;SDS011;48641;51.676;5.808;2022-11-15T01:37:36;7.20;;;3.08;;
62582;SDS011;48641;51.676;5.808;2022-11-15T01:40:02;6.70;;;2.85;;
62582;SDS011;48641;51.676;5.808;2022-11-15T01:42:28;6.90;;;3.20;;
62582;SDS011;48641;51.676;5.808;2022-11-15T01:44:54;6.13;;;2.75;;
62582;SDS011;48641;51.676;5.808;2022-11-15T01:49:58;7.72;;;3.08;;
62582;SDS011;48641;51.676;5.808;2022-11-15T01:52:27;6.28;;;2.90;;
62582;SDS011;48641;51.676;5.808;2022-11-15T01:55:04;6.57;;;2.88;;
62582;SDS011;48641;51.676;5.808;2022-11-15T01:57:39;6.97;;;2.70;;
62582;SDS011;48641;51.676;5.808;2022-11-15T02:00:10;6.88;;;2.85;;
62582;SDS011;48641;51.676;5.808;2022-11-15T02:02:36;6.53;;;2.47;;
62582;SDS011;48641;51.676;5.808;2022-11-15T02:05:03;7.63;;;3.05;;
62582;SDS011;48641;51.676;5.808;2022-11-15T02:07:29;6.47;;;3.20;;
62582;SDS011;48641;51.676;5.808;2022-11-15T02:10:01;6.35;;;2.83;;
62582;SDS011;48641;51.676;5.808;2022-11-15T02:12:36;7.13;;;3.08;;
62582;SDS011;48641;51.676;5.808;2022-11-15T02:15:02;7.35;;;2.97;;
62582;SDS011;48641;51.676;5.808;2022-11-15T02:23:03;7.70;;;3.03;;
62582;SDS011;48641;51.676;5.808;2022-11-15T02:29:03;5.95;;;2.55;;
62582;SDS011;48641;51.676;5.808;2022-11-15T02:34:33;6.20;;;2.95;;
62582;SDS011;48641;51.676;5.808;2022-11-15T02:40:02;6.05;;;2.60;;
62582;SDS011;48641;51.676;5.808;2022-11-15T02:42:39;5.57;;;2.47;;
62582;SDS011;48641;51.676;5.808;2022-11-15T02:45:27;6.60;;;2.78;;
62582;SDS011;48641;51.676;5.808;2022-11-15T02:47:56;6.25;;;2.90;;
62582;SDS011;48641;51.676;5.808;2022-11-15T02:50:27;6.03;;;2.80;;
62582;SDS011;48641;51.676;5.808;2022-11-15T02:52:54;6.75;;;2.90;;
62582;SDS011;48641;51.676;5.808;2022-11-15T02:55:27;6.45;;;2.67;;
62582;SDS011;48641;51.676;5.808;2022-11-15T03:00:47;6.80;;;3.05;;
62582;SDS011;48641;51.676;5.808;2022-11-15T03:06:09;7.22;;;3.13;;
62582;SDS011;48641;51.676;5.808;2022-11-15T03:08:57;7.45;;;2.72;;
62582;SDS011;48641;51.676;5.808;2022-11-15T03:11:24;6.57;;;2.83;;
62582;SDS011;48641;51.676;5.808;2022-11-15T03:13:59;6.88;;;2.72;;
62582;SDS011;48641;51.676;5.808;2022-11-15T03:16:48;6.15;;;2.60;;
62582;SDS011;48641;51.676;5.808;2022-11-15T03:19:44;6.90;;;3.00;;
62582;SDS011;48641;51.676;5.808;2022-11-15T03:22:12;7.15;;;2.88;;
62582;SDS011;48641;51.676;5.808;2022-11-15T03:24:42;6.25;;;2.83;;
62582;SDS011;48641;51.676;5.808;2022-11-15T03:27:12;5.97;;;2.90;;
62582;SDS011;48641;51.676;5.808;2022-11-15T03:29:43;6.53;;;2.90;;
62582;SDS011;48641;51.676;5.808;2022-11-15T03:32:14;6.60;;;2.78;;
62582;SDS011;48641;51.676;5.808;2022-11-15T03:34:47;6.80;;;3.03;;
62582;SDS011;48641;51.676;5.808;2022-11-15T03:37:17;6.55;;;2.60;;
62582;SDS011;48641;51.676;5.808;2022-11-15T03:39:45;6.32;;;2.90;;
62582;SDS011;48641;51.676;5.808;2022-11-15T03:50:46;6.15;;;2.60;;
62582;SDS011;48641;51.676;5.808;2022-11-15T03:53:13;5.88;;;2.90;;
62582;SDS011;48641;51.676;5.808;2022-11-15T03:55:39;7.22;;;3.15;;
62582;SDS011;48641;51.676;5.808;2022-11-15T03:58:05;5.40;;;2.58;;
62582;SDS011;48641;51.676;5.808;2022-11-15T04:00:31;7.00;;;2.80;;
62582;SDS011;48641;51.676;5.808;2022-11-15T04:02:57;6.82;;;2.78;;
62582;SDS011;48641;51.676;5.808;2022-11-15T04:05:22;7.65;;;3.15;;
62582;SDS011;48641;51.676;5.808;2022-11-15T04:07:48;5.97;;;2.50;;
62582;SDS011;48641;51.676;5.808;2022-11-15T04:10:14;6.90;;;2.75;;
62582;SDS011;48641;51.676;5.808;2022-11-15T04:12:40;6.18;;;3.10;;
62582;SDS011;48641;51.676;5.808;2022-11-15T04:15:09;6.32;;;2.72;;
62582;SDS011;48641;51.676;5.808;2022-11-15T04:17:43;6.15;;;2.78;;
62582;SDS011;48641;51.676;5.808;2022-11-15T04:23:01;6.18;;;2.70;;
62582;SDS011;48641;51.676;5.808;2022-11-15T04:25:49;6.10;;;2.40;;
62582;SDS011;48641;51.676;5.808;2022-11-15T04:28:16;6.78;;;2.70;;
62582;SDS011;48641;51.676;5.808;2022-11-15T04:30:42;6.60;;;2.80;;
62582;SDS011;48641;51.676;5.808;2022-11-15T04:33:07;6.55;;;2.83;;
62582;SDS011;48641;51.676;5.808;2022-11-15T04:35:33;7.72;;;3.10;;
62582;SDS011;48641;51.676;5.808;2022-11-15T04:37:59;7.25;;;2.97;;
62582;SDS011;48641;51.676;5.808;2022-11-15T04:40:26;6.43;;;2.90;;
62582;SDS011;48641;51.676;5.808;2022-11-15T04:42:51;6.47;;;2.92;;
62582;SDS011;48641;51.676;5.808;2022-11-15T04:45:17;6.97;;;2.90;;
62582;SDS011;48641;51.676;5.808;2022-11-15T04:47:43;6.35;;;2.80;;
62582;SDS011;48641;51.676;5.808;2022-11-15T04:50:10;7.10;;;3.20;;
62582;SDS011;48641;51.676;5.808;2022-11-15T04:52:38;6.65;;;2.80;;
62582;SDS011;48641;51.676;5.808;2022-11-15T04:55:08;7.20;;;2.53;;
62582;SDS011;48641;51.676;5.808;2022-11-15T04:57:35;7.03;;;2.60;;
62582;SDS011;48641;51.676;5.808;2022-11-15T05:00:01;6.70;;;2.72;;
62582;SDS011;48641;51.676;5.808;2022-11-15T05:02:28;6.00;;;2.78;;
62582;SDS011;48641;51.676;5.808;2022-11-15T05:05:14;5.35;;;2.50;;
62582;SDS011;48641;51.676;5.808;2022-11-15T05:07:39;6.60;;;2.35;;
62582;SDS011;48641;51.676;5.808;2022-11-15T05:10:05;5.88;;;2.72;;
62582;SDS011;48641;51.676;5.808;2022-11-15T05:12:31;6.45;;;2.72;;
62582;SDS011;48641;51.676;5.808;2022-11-15T05:14:56;6.45;;;2.55;;
62582;SDS011;48641;51.676;5.808;2022-11-15T05:17:22;5.50;;;2.45;;
62582;SDS011;48641;51.676;5.808;2022-11-15T05:19:47;6.25;;;2.55;;
62582;SDS011;48641;51.676;5.808;2022-11-15T05:22:13;6.05;;;2.42;;
62582;SDS011;48641;51.676;5.808;2022-11-15T05:24:38;5.82;;;2.50;;
62582;SDS011;48641;51.676;5.808;2022-11-15T05:27:04;5.93;;;2.40;;
62582;SDS011;48641;51.676;5.808;2022-11-15T05:29:29;6.20;;;2.78;;
62582;SDS011;48641;51.676;5.808;2022-11-15T05:31:55;6.03;;;2.80;;
62582;SDS011;48641;51.676;5.808;2022-11-15T05:34:20;5.70;;;2.42;;
62582;SDS011;48641;51.676;5.808;2022-11-15T05:36:47;5.43;;;2.40;;
62582;SDS011;48641;51.676;5.808;2022-11-15T05:39:13;6.25;;;2.63;;
62582;SDS011;48641;51.676;5.808;2022-11-15T05:41:46;5.82;;;2.50;;
62582;SDS011;48641;51.676;5.808;2022-11-15T05:44:17;6.88;;;2.67;;
62582;SDS011;48641;51.676;5.808;2022-11-15T05:46:46;6.10;;;2.75;;
62582;SDS011;48641;51.676;5.808;2022-11-15T05:49:14;5.55;;;2.33;;
62582;SDS011;48641;51.676;5.808;2022-11-15T05:51:42;5.30;;;2.30;;
62582;SDS011;48641;51.676;5.808;2022-11-15T05:54:10;5.68;;;2.60;;
62582;SDS011;48641;51.676;5.808;2022-11-15T05:56:36;5.90;;;2.63;;
62582;SDS011;48641;51.676;5.808;2022-11-15T05:59:02;6.03;;;2.50;;
62582;SDS011;48641;51.676;5.808;2022-11-15T06:01:28;5.72;;;2.45;;
62582;SDS011;48641;51.676;5.808;2022-11-15T06:03:54;6.38;;;2.70;;
62582;SDS011;48641;51.676;5.808;2022-11-15T06:06:20;4.47;;;2.05;;
62582;SDS011;48641;51.676;5.808;2022-11-15T06:08:46;6.88;;;2.83;;
62582;SDS011;48641;51.676;5.808;2022-11-15T06:11:13;5.35;;;2.30;;
62582;SDS011;48641;51.676;5.808;2022-11-15T06:13:38;5.28;;;2.30;;
62582;SDS011;48641;51.676;5.808;2022-11-15T06:16:04;5.25;;;2.28;;
62582;SDS011;48641;51.676;5.808;2022-11-15T06:18:34;6.10;;;2.60;;
62582;SDS011;48641;51.676;5.808;2022-11-15T06:21:00;7.22;;;2.95;;
62582;SDS011;48641;51.676;5.808;2022-11-15T06:23:26;5.07;;;2.45;;
62582;SDS011;48641;51.676;5.808;2022-11-15T06:25:52;5.78;;;2.65;;
62582;SDS011;48641;51.676;5.808;2022-11-15T06:28:18;5.80;;;2.40;;
62582;SDS011;48641;51.676;5.808;2022-11-15T06:30:44;5.70;;;2.45;;
62582;SDS011;48641;51.676;5.808;2022-11-15T06:33:10;5.65;;;2.50;;
62582;SDS011;48641;51.676;5.808;2022-11-15T06:35:35;6.25;;;2.20;;
62582;SDS011;48641;51.676;5.808;2022-11-15T06:38:05;6.30;;;2.67;;
62582;SDS011;48641;51.676;5.808;2022-11-15T06:40:34;6.00;;;2.30;;
62582;SDS011;48641;51.676;5.808;2022-11-15T06:43:01;5.45;;;2.47;;
62582;SDS011;48641;51.676;5.808;2022-11-15T06:45:27;5.78;;;2.58;;
62582;SDS011;48641;51.676;5.808;2022-11-15T06:47:52;5.40;;;2.13;;
62582;SDS011;48641;51.676;5.808;2022-11-15T06:50:18;6.18;;;2.42;;
62582;SDS011;48641;51.676;5.808;2022-11-15T06:52:44;4.68;;;2.10;;
62582;SDS011;48641;51.676;5.808;2022-11-15T06:55:10;5.47;;;2.33;;
62582;SDS011;48641;51.676;5.808;2022-11-15T06:57:35;5.63;;;2.10;;
62582;SDS011;48641;51.676;5.808;2022-11-15T07:00:04;5.22;;;2.28;;
62582;SDS011;48641;51.676;5.808;2022-11-15T07:04:56;5.47;;;2.35;;
62582;SDS011;48641;51.676;5.808;2022-11-15T07:07:22;5.20;;;2.22;;
62582;SDS011;48641;51.676;5.808;2022-11-15T07:09:47;5.50;;;2.40;;
62582;SDS011;48641;51.676;5.808;2022-11-15T07:12:13;4.75;;;2.35;;
62582;SDS011;48641;51.676;5.808;2022-11-15T07:14:38;5.78;;;2.63;;
62582;SDS011;48641;51.676;5.808;2022-11-15T07:17:04;6.15;;;2.25;;
62582;SDS011;48641;51.676;5.808;2022-11-15T07:19:30;5.78;;;2.50;;
62582;SDS011;48641;51.676;5.808;2022-11-15T07:21:56;5.85;;;2.30;;
62582;SDS011;48641;51.676;5.808;2022-11-15T07:24:22;4.88;;;2.38;;
62582;SDS011;48641;51.676;5.808;2022-11-15T07:26:47;6.90;;;2.63;;
62582;SDS011;48641;51.676;5.808;2022-11-15T07:29:13;5.90;;;2.60;;
62582;SDS011;48641;51.676;5.808;2022-11-15T07:31:38;5.53;;;2.00;;
62582;SDS011;48641;51.676;5.808;2022-11-15T07:34:04;5.28;;;2.28;;
62582;SDS011;48641;51.676;5.808;2022-11-15T07:36:29;4.90;;;2.25;;
62582;SDS011;48641;51.676;5.808;2022-11-15T07:38:55;5.65;;;2.60;;
62582;SDS011;48641;51.676;5.808;2022-11-15T07:41:21;5.65;;;2.35;;
62582;SDS011;48641;51.676;5.808;2022-11-15T07:43:46;6.45;;;2.53;;
62582;SDS011;48641;51.676;5.808;2022-11-15T07:46:12;5.65;;;2.33;;
62582;SDS011;48641;51.676;5.808;2022-11-15T07:48:38;6.28;;;2.50;;
62582;SDS011;48641;51.676;5.808;2022-11-15T07:51:05;6.43;;;2.60;;
62582;SDS011;48641;51.676;5.808;2022-11-15T07:53:31;5.45;;;2.40;;
62582;SDS011;48641;51.676;5.808;2022-11-15T07:55:57;5.32;;;2.30;;
62582;SDS011;48641;51.676;5.808;2022-11-15T07:58:22;4.78;;;2.28;;
62582;SDS011;48641;51.676;5.808;2022-11-15T08:00:48;5.25;;;2.08;;
62582;SDS011;48641;51.676;5.808;2022-11-15T08:03:15;5.88;;;2.13;;
62582;SDS011;48641;51.676;5.808;2022-11-15T08:05:41;4.75;;;2.20;;
62582;SDS011;48641;51.676;5.808;2022-11-15T08:08:08;5.88;;;2.20;;
62582;SDS011;48641;51.676;5.808;2022-11-15T08:10:36;5.20;;;2.28;;
62582;SDS011;48641;51.676;5.808;2022-11-15T08:13:08;5.18;;;2.30;;
62582;SDS011;48641;51.676;5.808;2022-11-15T08:15:35;5.00;;;2.28;;
62582;SDS011;48641;51.676;5.808;2022-11-15T08:18:03;5.43;;;2.10;;
62582;SDS011;48641;51.676;5.808;2022-11-15T08:20:31;4.82;;;1.98;;
62582;SDS011;48641;51.676;5.808;2022-11-15T08:22:59;4.45;;;2.10;;
62582;SDS011;48641;51.676;5.808;2022-11-15T08:25:26;6.07;;;2.00;;
62582;SDS011;48641;51.676;5.808;2022-11-15T08:27:53;6.18;;;2.13;;
62582;SDS011;48641;51.676;5.808;2022-11-15T08:30:20;4.30;;;1.90;;
62582;SDS011;48641;51.676;5.808;2022-11-15T08:32:46;4.32;;;1.90;;
62582;SDS011;48641;51.676;5.808;2022-11-15T08:35:12;4.90;;;2.20;;
62582;SDS011;48641;51.676;5.808;2022-11-15T08:37:38;7.03;;;2.67;;
62582;SDS011;48641;51.676;5.808;2022-11-15T08:40:04;8.27;;;2.90;;
62582;SDS011;48641;51.676;5.808;2022-11-15T08:42:30;8.60;;;2.92;;
62582;SDS011;48641;51.676;5.808;2022-11-15T08:44:56;7.88;;;3.03;;
62582;SDS011;48641;51.676;5.808;2022-11-15T08:47:21;6.90;;;2.90;;
62582;SDS011;48641;51.676;5.808;2022-11-15T08:49:47;7.13;;;2.55;;
62582;SDS011;48641;51.676;5.808;2022-11-15T08:52:13;6.38;;;2.20;;
62582;SDS011;48641;51.676;5.808;2022-11-15T08:54:39;6.45;;;2.38;;
62582;SDS011;48641;51.676;5.808;2022-11-15T08:57:05;6.10;;;2.40;;
62582;SDS011;48641;51.676;5.808;2022-11-15T08:59:30;6.05;;;2.42;;
62582;SDS011;48641;51.676;5.808;2022-11-15T09:01:56;6.47;;;2.28;;
62582;SDS011;48641;51.676;5.808;2022-11-15T09:04:22;6.35;;;2.20;;
62582;SDS011;48641;51.676;5.808;2022-11-15T09:06:47;6.93;;;2.35;;
62582;SDS011;48641;51.676;5.808;2022-11-15T09:09:13;5.78;;;2.20;;
62582;SDS011;48641;51.676;5.808;2022-11-15T09:11:39;5.22;;;2.25;;
62582;SDS011;48641;51.676;5.808;2022-11-15T09:14:05;5.03;;;2.20;;
62582;SDS011;48641;51.676;5.808;2022-11-15T09:16:31;4.72;;;2.00;;
62582;SDS011;48641;51.676;5.808;2022-11-15T09:18:56;7.00;;;2.47;;
62582;SDS011;48641;51.676;5.808;2022-11-15T09:21:22;5.88;;;2.45;;
62582;SDS011;48641;51.676;5.808;2022-11-15T09:23:51;5.32;;;2.10;;
62582;SDS011;48641;51.676;5.808;2022-11-15T09:28:43;4.75;;;1.98;;
62582;SDS011;48641;51.676;5.808;2022-11-15T09:31:08;4.25;;;2.03;;
62582;SDS011;48641;51.676;5.808;2022-11-15T09:33:34;5.40;;;2.03;;
62582;SDS011;48641;51.676;5.808;2022-11-15T09:36:01;5.57;;;2.20;;
62582;SDS011;48641;51.676;5.808;2022-11-15T09:38:30;5.22;;;2.05;;
62582;SDS011;48641;51.676;5.808;2022-11-15T09:41:08;5.78;;;2.10;;
62582;SDS011;48641;51.676;5.808;2022-11-15T09:43:47;4.57;;;1.80;;
62582;SDS011;48641;51.676;5.808;2022-11-15T09:49:28;4.57;;;1.85;;
62582;SDS011;48641;51.676;5.808;2022-11-15T09:51:55;9.65;;;2.55;;
62582;SDS011;48641;51.676;5.808;2022-11-15T09:57:44;5.25;;;1.90;;
62582;SDS011;48641;51.676;5.808;2022-11-15T10:05:43;5.10;;;2.40;;
62582;SDS011;48641;51.676;5.808;2022-11-15T10:10:51;4.47;;;1.80;;
62582;SDS011;48641;51.676;5.808;2022-11-15T10:13:24;6.25;;;2.25;;
62582;SDS011;48641;51.676;5.808;2022-11-15T10:15:54;6.47;;;2.00;;
62582;SDS011;48641;51.676;5.808;2022-11-15T10:18:35;7.82;;;2.28;;
62582;SDS011;48641;51.676;5.808;2022-11-15T10:21:15;6.70;;;2.00;;
62582;SDS011;48641;51.676;5.808;2022-11-15T10:23:44;5.65;;;1.80;;
62582;SDS011;48641;51.676;5.808;2022-11-15T10:26:11;4.05;;;1.70;;
62582;SDS011;48641;51.676;5.808;2022-11-15T10:28:40;5.65;;;2.05;;
62582;SDS011;48641;51.676;5.808;2022-11-15T10:31:21;4.82;;;1.65;;
62582;SDS011;48641;51.676;5.808;2022-11-15T10:33:49;5.30;;;1.95;;
62582;SDS011;48641;51.676;5.808;2022-11-15T10:36:17;6.32;;;1.77;;
62582;SDS011;48641;51.676;5.808;2022-11-15T10:41:14;4.75;;;1.60;;
62582;SDS011;48641;51.676;5.808;2022-11-15T10:43:40;3.47;;;1.40;;
62582;SDS011;48641;51.676;5.808;2022-11-15T10:46:19;5.18;;;1.70;;
62582;SDS011;48641;51.676;5.808;2022-11-15T10:48:47;5.05;;;1.55;;
62582;SDS011;48641;51.676;5.808;2022-11-15T10:51:22;4.13;;;1.58;;
62582;SDS011;48641;51.676;5.808;2022-11-15T10:53:54;5.20;;;1.30;;
62582;SDS011;48641;51.676;5.808;2022-11-15T10:56:22;4.28;;;1.45;;
62582;SDS011;48641;51.676;5.808;2022-11-15T10:58:53;3.63;;;1.50;;
62582;SDS011;48641;51.676;5.808;2022-11-15T11:01:24;3.78;;;1.55;;
62582;SDS011;48641;51.676;5.808;2022-11-15T11:04:01;4.25;;;1.45;;
62582;SDS011;48641;51.676;5.808;2022-11-15T11:09:22;3.60;;;1.38;;
62582;SDS011;48641;51.676;5.808;2022-11-15T11:11:52;4.88;;;1.40;;
62582;SDS011;48641;51.676;5.808;2022-11-15T11:17:05;6.35;;;1.50;;
62582;SDS011;48641;51.676;5.808;2022-11-15T11:25:08;5.60;;;1.50;;
62582;SDS011;48641;51.676;5.808;2022-11-15T11:46:56;4.60;;;1.23;;
62582;SDS011;48641;51.676;5.808;2022-11-15T11:49:32;2.65;;;1.10;;
62582;SDS011;48641;51.676;5.808;2022-11-15T11:54:37;4.25;;;1.20;;
62582;SDS011;48641;51.676;5.808;2022-11-15T11:57:15;4.22;;;1.00;;
62582;SDS011;48641;51.676;5.808;2022-11-15T12:00:18;2.47;;;1.10;;
62582;SDS011;48641;51.676;5.808;2022-11-15T12:05:40;4.22;;;1.17;;
62582;SDS011;48641;51.676;5.808;2022-11-15T12:13:58;2.22;;;1.00;;
62582;SDS011;48641;51.676;5.808;2022-11-15T12:16:29;4.10;;;1.20;;
62582;SDS011;48641;51.676;5.808;2022-11-15T12:18:56;2.80;;;1.00;;
62582;SDS011;48641;51.676;5.808;2022-11-15T12:24:14;3.45;;;1.20;;
62582;SDS011;48641;51.676;5.808;2022-11-15T12:26:52;4.22;;;1.20;;
62582;SDS011;48641;51.676;5.808;2022-11-15T12:29:30;3.72;;;1.10;;
62582;SDS011;48641;51.676;5.808;2022-11-15T12:32:05;2.53;;;1.20;;
62582;SDS011;48641;51.676;5.808;2022-11-15T12:34:49;2.63;;;1.15;;
62582;SDS011;48641;51.676;5.808;2022-11-15T12:42:41;2.45;;;1.00;;
62582;SDS011;48641;51.676;5.808;2022-11-15T12:50:55;3.50;;;1.10;;
62582;SDS011;48641;51.676;5.808;2022-11-15T13:17:12;1.95;;;0.75;;
62582;SDS011;48641;51.676;5.808;2022-11-15T13:19:48;1.98;;;0.88;;
62582;SDS011;48641;51.676;5.808;2022-11-15T13:22:20;3.45;;;1.00;;
62582;SDS011;48641;51.676;5.808;2022-11-15T13:25:04;2.55;;;0.82;;
62582;SDS011;48641;51.676;5.808;2022-11-15T13:27:51;2.58;;;0.90;;
62582;SDS011;48641;51.676;5.808;2022-11-15T13:30:20;2.13;;;0.80;;
62582;SDS011;48641;51.676;5.808;2022-11-15T13:32:48;1.75;;;0.77;;
62582;SDS011;48641;51.676;5.808;2022-11-15T13:35:25;1.63;;;0.82;;
62582;SDS011;48641;51.676;5.808;2022-11-15T13:37:53;2.45;;;0.80;;
62582;SDS011;48641;51.676;5.808;2022-11-15T13:40:21;2.20;;;0.90;;
62582;SDS011;48641;51.676;5.808;2022-11-15T13:42:55;2.50;;;0.85;;
62582;SDS011;48641;51.676;5.808;2022-11-15T13:45:21;2.38;;;0.93;;
62582;SDS011;48641;51.676;5.808;2022-11-15T13:47:50;2.20;;;0.80;;
62582;SDS011;48641;51.676;5.808;2022-11-15T13:50:17;1.77;;;0.93;;
62582;SDS011;48641;51.676;5.808;2022-11-15T13:52:46;3.72;;;0.90;;
62582;SDS011;48641;51.676;5.808;2022-11-15T13:55:14;2.60;;;0.80;;
62582;SDS011;48641;51.676;5.808;2022-11-15T14:00:29;3.22;;;1.00;;
62582;SDS011;48641;51.676;5.808;2022-11-15T14:03:19;2.75;;;0.90;;
62582;SDS011;48641;51.676;5.808;2022-11-15T14:11:53;1.90;;;0.70;;
62582;SDS011;48641;51.676;5.808;2022-11-15T14:14:21;2.72;;;0.93;;
62582;SDS011;48641;51.676;5.808;2022-11-15T14:16:52;1.38;;;0.77;;
62582;SDS011;48641;51.676;5.808;2022-11-15T14:24:42;1.52;;;0.70;;
62582;SDS011;48641;51.676;5.808;2022-11-15T14:29:49;2.17;;;0.70;;
62582;SDS011;48641;51.676;5.808;2022-11-15T14:32:19;2.80;;;0.82;;
62582;SDS011;48641;51.676;5.808;2022-11-15T14:34:59;3.63;;;0.95;;
62582;SDS011;48641;51.676;5.808;2022-11-15T14:37:27;3.17;;;1.02;;
62582;SDS011;48641;51.676;5.808;2022-11-15T14:39:54;2.95;;;1.00;;
62582;SDS011;48641;51.676;5.808;2022-11-15T14:42:20;2.45;;;1.10;;
62582;SDS011;48641;51.676;5.808;2022-11-15T14:44:47;4.22;;;0.98;;
62582;SDS011;48641;51.676;5.808;2022-11-15T14:47:12;3.72;;;1.00;;
62582;SDS011;48641;51.676;5.808;2022-11-15T14:49:38;3.45;;;1.10;;
62582;SDS011;48641;51.676;5.808;2022-11-15T14:52:07;3.03;;;1.13;;
62582;SDS011;48641;51.676;5.808;2022-11-15T14:54:49;3.30;;;1.00;;
62582;SDS011;48641;51.676;5.808;2022-11-15T14:57:15;8.98;;;1.55;;
62582;SDS011;48641;51.676;5.808;2022-11-15T14:59:41;3.55;;;1.20;;
62582;SDS011;48641;51.676;5.808;2022-11-15T15:02:09;3.28;;;1.10;;
62582;SDS011;48641;51.676;5.808;2022-11-15T15:04:44;4.22;;;1.27;;
62582;SDS011;48641;51.676;5.808;2022-11-15T15:07:10;8.50;;;3.53;;
62582;SDS011;48641;51.676;5.808;2022-11-15T15:09:36;12.77;;;3.70;;
62582;SDS011;48641;51.676;5.808;2022-11-15T15:12:01;7.90;;;2.47;;
62582;SDS011;48641;51.676;5.808;2022-11-15T15:14:27;9.85;;;3.80;;
62582;SDS011;48641;51.676;5.808;2022-11-15T15:16:52;10.27;;;4.10;;
62582;SDS011;48641;51.676;5.808;2022-11-15T15:19:18;10.15;;;2.92;;
62582;SDS011;48641;51.676;5.808;2022-11-15T15:21:43;7.13;;;2.80;;
62582;SDS011;48641;51.676;5.808;2022-11-15T15:24:15;10.52;;;3.45;;
62582;SDS011;48641;51.676;5.808;2022-11-15T15:26:41;9.60;;;3.20;;
62582;SDS011;48641;51.676;5.808;2022-11-15T15:29:08;10.23;;;2.85;;
62582;SDS011;48641;51.676;5.808;2022-11-15T15:31:34;10.90;;;3.25;;
62582;SDS011;48641;51.676;5.808;2022-11-15T15:34:00;7.13;;;3.08;;
62582;SDS011;48641;51.676;5.808;2022-11-15T15:36:26;8.07;;;2.97;;
62582;SDS011;48641;51.676;5.808;2022-11-15T15:38:51;8.10;;;2.95;;
62582;SDS011;48641;51.676;5.808;2022-11-15T15:41:17;7.97;;;2.67;;
62582;SDS011;48641;51.676;5.808;2022-11-15T15:43:43;8.27;;;2.97;;
62582;SDS011;48641;51.676;5.808;2022-11-15T15:46:14;8.60;;;2.83;;
62582;SDS011;48641;51.676;5.808;2022-11-15T15:48:41;8.63;;;2.75;;
62582;SDS011;48641;51.676;5.808;2022-11-15T15:51:07;8.93;;;2.67;;
62582;SDS011;48641;51.676;5.808;2022-11-15T15:53:33;9.52;;;2.95;;
62582;SDS011;48641;51.676;5.808;2022-11-15T15:55:59;8.00;;;2.67;;
62582;SDS011;48641;51.676;5.808;2022-11-15T15:58:25;7.72;;;2.55;;
62582;SDS011;48641;51.676;5.808;2022-11-15T16:00:50;7.45;;;2.45;;
62582;SDS011;48641;51.676;5.808;2022-11-15T16:03:16;9.73;;;2.70;;
62582;SDS011;48641;51.676;5.808;2022-11-15T16:05:42;10.73;;;2.72;;
62582;SDS011;48641;51.676;5.808;2022-11-15T16:08:21;6.60;;;2.53;;
62582;SDS011;48641;51.676;5.808;2022-11-15T16:10:49;7.45;;;2.72;;
62582;SDS011;48641;51.676;5.808;2022-11-15T16:13:14;9.63;;;2.80;;
62582;SDS011;48641;51.676;5.808;2022-11-15T16:15:40;6.57;;;2.50;;
62582;SDS011;48641;51.676;5.808;2022-11-15T16:18:08;8.43;;;2.70;;
62582;SDS011;48641;51.676;5.808;2022-11-15T16:20:40;6.30;;;2.40;;
62582;SDS011;48641;51.676;5.808;2022-11-15T16:23:11;9.77;;;4.00;;
62582;SDS011;48641;51.676;5.808;2022-11-15T16:25:46;8.97;;;3.67;;
62582;SDS011;48641;51.676;5.808;2022-11-15T16:30:49;7.82;;;2.80;;
62582;SDS011;48641;51.676;5.808;2022-11-15T16:33:25;7.25;;;2.80;;
62582;SDS011;48641;51.676;5.808;2022-11-15T16:35:50;6.38;;;2.55;;
62582;SDS011;48641;51.676;5.808;2022-11-15T16:38:16;8.77;;;2.75;;
62582;SDS011;48641;51.676;5.808;2022-11-15T16:40:42;7.50;;;2.78;;
62582;SDS011;48641;51.676;5.808;2022-11-15T16:43:08;6.65;;;2.80;;
62582;SDS011;48641;51.676;5.808;2022-11-15T16:45:34;6.38;;;2.55;;
62582;SDS011;48641;51.676;5.808;2022-11-15T16:48:00;9.75;;;2.85;;
62582;SDS011;48641;51.676;5.808;2022-11-15T16:50:27;7.82;;;2.65;;
62582;SDS011;48641;51.676;5.808;2022-11-15T16:52:55;7.05;;;2.70;;
62582;SDS011;48641;51.676;5.808;2022-11-15T16:55:22;7.03;;;2.95;;
62582;SDS011;48641;51.676;5.808;2022-11-15T16:57:49;6.97;;;2.83;;
62582;SDS011;48641;51.676;5.808;2022-11-15T17:00:16;8.20;;;2.90;;
62582;SDS011;48641;51.676;5.808;2022-11-15T17:02:43;6.80;;;2.25;;
62582;SDS011;48641;51.676;5.808;2022-11-15T17:05:10;6.53;;;2.30;;
62582;SDS011;48641;51.676;5.808;2022-11-15T17:07:36;6.47;;;2.60;;
62582;SDS011;48641;51.676;5.808;2022-11-15T17:10:03;8.02;;;3.03;;
62582;SDS011;48641;51.676;5.808;2022-11-15T17:12:29;6.93;;;2.78;;
62582;SDS011;48641;51.676;5.808;2022-11-15T17:14:55;6.90;;;2.63;;
62582;SDS011;48641;51.676;5.808;2022-11-15T17:17:21;6.90;;;2.63;;
62582;SDS011;48641;51.676;5.808;2022-11-15T17:19:47;7.43;;;2.47;;
62582;SDS011;48641;51.676;5.808;2022-11-15T17:22:12;6.78;;;2.35;;
62582;SDS011;48641;51.676;5.808;2022-11-15T17:24:38;7.13;;;2.67;;
62582;SDS011;48641;51.676;5.808;2022-11-15T17:27:04;6.03;;;2.45;;
62582;SDS011;48641;51.676;5.808;2022-11-15T17:29:29;7.10;;;2.58;;